Time;durP1;ratioP1;P1;durP2;ratioP2;P2;SDS_P1;SDS_P2;PMS_P1;PMS_P2;Temp;Humidity;BMP_temperature;BMP_pressure;BME280_temperature;BME280_humidity;BME280_pressure;Samples;Min_cycle;Max_cycle;Signal;HPM_P1;HPM_P2
2023/09/18 00:00:35;;;;;;;15.97;14.97;;;18.80;99.90;;;;;;4748654;30;20205;-53
2023/09/18 00:03:03;;;;;;;15.37;14.47;;;18.90;99.90;;;;;;4749214;30;20275;-53
2023/09/18 00:05:29;;;;;;;15.60;14.60;;;18.90;99.90;;;;;;4747599;30;20455;-51
2023/09/18 00:07:54;;;;;;;15.00;14.20;;;18.90;99.90;;;;;;4749191;30;20431;-52
2023/09/18 00:10:20;;;;;;;15.40;14.50;;;19.00;99.90;;;;;;4746119;30;20485;-55
2023/09/18 00:12:45;;;;;;;16.07;15.17;;;19.10;99.90;;;;;;4748733;30;20201;-53
2023/09/18 00:15:11;;;;;;;15.50;14.60;;;19.20;99.90;;;;;;4749531;30;20169;-53
2023/09/18 00:17:36;;;;;;;15.70;14.70;;;19.30;99.90;;;;;;4744956;30;20285;-52
2023/09/18 00:20:06;;;;;;;15.80;14.90;;;19.40;99.90;;;;;;4748024;30;20204;-53
2023/09/18 00:22:32;;;;;;;16.23;15.20;;;19.50;99.90;;;;;;4749278;30;20183;-52
2023/09/18 00:24:57;;;;;;;16.60;15.50;;;19.60;99.90;;;;;;4749220;30;20423;-54
2023/09/18 00:27:23;;;;;;;15.90;14.90;;;19.70;99.90;;;;;;4749296;30;20177;-55
2023/09/18 00:29:49;;;;;;;15.77;14.80;;;19.70;99.90;;;;;;4749247;30;20161;-53
2023/09/18 00:32:14;;;;;;;15.87;14.97;;;19.70;99.90;;;;;;4749212;30;20856;-52
2023/09/18 00:34:40;;;;;;;16.00;15.10;;;19.70;99.90;;;;;;4748577;30;20204;-55
2023/09/18 00:37:05;;;;;;;15.87;14.87;;;19.70;99.90;;;;;;4748986;30;20188;-52
2023/09/18 00:39:31;;;;;;;16.47;15.43;;;19.70;99.90;;;;;;4747940;30;20250;-52
2023/09/18 00:41:57;;;;;;;15.70;14.80;;;19.80;99.90;;;;;;4749232;30;20212;-54
2023/09/18 00:44:24;;;;;;;16.27;15.27;;;19.80;99.90;;;;;;4748609;30;20526;-53
2023/09/18 00:46:51;;;;;;;15.73;14.83;;;19.80;99.90;;;;;;4748612;30;20188;-55
2023/09/18 00:49:18;;;;;;;15.97;15.07;;;19.70;99.90;;;;;;4735965;30;20454;-53
2023/09/18 00:51:44;;;;;;;16.90;15.80;;;19.70;99.90;;;;;;4748224;30;20454;-53
2023/09/18 00:54:10;;;;;;;16.33;15.40;;;19.80;99.90;;;;;;4749107;30;20447;-55
2023/09/18 00:56:36;;;;;;;16.77;15.77;;;19.70;99.90;;;;;;4746685;30;20808;-48
2023/09/18 00:59:03;;;;;;;16.63;15.63;;;19.70;99.90;;;;;;4747809;30;20471;-52
2023/09/18 01:01:29;;;;;;;16.50;15.50;;;19.70;99.90;;;;;;4747847;30;20196;-51
2023/09/18 01:03:56;;;;;;;15.80;14.90;;;19.70;99.90;;;;;;4748069;30;20450;-55
2023/09/18 01:06:30;;;;;;;16.03;15.03;;;19.70;99.90;;;;;;4744227;30;20447;-54
2023/09/18 01:08:56;;;;;;;16.43;15.43;;;19.80;99.90;;;;;;4747799;30;20450;-53
2023/09/18 01:11:41;;;;;;;17.13;16.03;;;19.80;99.90;;;;;;4747654;30;20453;-53
2023/09/18 01:14:17;;;;;;;16.10;15.13;;;19.80;99.90;;;;;;4748537;30;20558;-52
2023/09/18 01:17:01;;;;;;;16.50;15.50;;;19.70;99.90;;;;;;4751932;30;20478;-51
2023/09/18 01:19:47;;;;;;;16.40;15.40;;;19.70;99.90;;;;;;4751775;30;20450;-51
2023/09/18 01:22:17;;;;;;;16.13;15.20;;;19.80;99.90;;;;;;4752272;30;21267;-53
2023/09/18 01:24:45;;;;;;;16.40;15.40;;;19.80;99.90;;;;;;4750816;30;20446;-55
2023/09/18 01:27:16;;;;;;;16.77;15.80;;;19.80;99.90;;;;;;4751565;30;20466;-53
2023/09/18 01:29:43;;;;;;;16.67;15.57;;;19.80;99.90;;;;;;4751962;30;20422;-54
2023/09/18 01:32:08;;;;;;;16.30;15.30;;;19.90;99.90;;;;;;4751913;30;20550;-53
2023/09/18 01:34:41;;;;;;;16.20;15.30;;;19.90;99.90;;;;;;4751133;30;20547;-53
2023/09/18 01:37:09;;;;;;;16.80;15.80;;;19.80;99.90;;;;;;4750476;30;21267;-48
2023/09/18 01:39:35;;;;;;;17.23;16.07;;;19.90;99.90;;;;;;4751275;30;20488;-52
2023/09/18 01:42:05;;;;;;;16.50;15.50;;;19.80;99.90;;;;;;4751054;30;20833;-49
2023/09/18 01:44:34;;;;;;;16.80;15.80;;;19.80;99.90;;;;;;4745018;30;20524;-51
2023/09/18 01:47:03;;;;;;;17.00;15.90;;;19.80;99.90;;;;;;4750373;30;20462;-55
2023/09/18 01:49:34;;;;;;;16.20;15.20;;;19.80;99.90;;;;;;4751839;30;20455;-51
2023/09/18 01:52:00;;;;;;;16.23;15.27;;;19.80;99.90;;;;;;4749691;30;20446;-55
2023/09/18 01:54:25;;;;;;;16.87;15.57;;;19.80;99.90;;;;;;4753184;30;20762;-55
2023/09/18 01:56:53;;;;;;;15.93;15.03;;;19.80;99.90;;;;;;4751771;30;20512;-53
2023/09/18 01:59:19;;;;;;;17.10;16.00;;;19.80;99.90;;;;;;4751282;30;20197;-51
2023/09/18 02:01:44;;;;;;;15.60;14.70;;;19.80;99.90;;;;;;4751525;30;20434;-55
2023/09/18 02:04:10;;;;;;;16.00;15.00;;;19.80;99.90;;;;;;4751437;30;20473;-51
2023/09/18 02:06:36;;;;;;;16.47;15.47;;;19.80;99.90;;;;;;4747405;30;20204;-52
2023/09/18 02:09:03;;;;;;;16.80;15.80;;;19.80;99.90;;;;;;4751067;30;20726;-53
2023/09/18 02:11:29;;;;;;;16.63;15.63;;;19.70;99.90;;;;;;4751003;30;20201;-51
2023/09/18 02:13:56;;;;;;;17.60;16.50;;;19.70;99.90;;;;;;4751298;30;20427;-55
2023/09/18 02:16:23;;;;;;;17.27;15.97;;;19.70;99.90;;;;;;4749518;30;20494;-54
2023/09/18 02:18:50;;;;;;;17.20;16.20;;;19.70;99.90;;;;;;4750372;30;20544;-53
2023/09/18 02:21:22;;;;;;;17.60;16.50;;;19.60;99.90;;;;;;4751137;30;21086;-54
2023/09/18 02:23:52;;;;;;;17.20;16.10;;;19.60;99.90;;;;;;4751151;30;20449;-50
2023/09/18 02:26:18;;;;;;;16.63;15.63;;;19.50;99.90;;;;;;4749769;30;20522;-49
2023/09/18 02:28:44;;;;;;;16.60;15.60;;;19.50;99.90;;;;;;4751052;30;20644;-55
2023/09/18 02:31:10;;;;;;;16.63;15.63;;;19.50;99.90;;;;;;4750191;30;20556;-52
2023/09/18 02:33:36;;;;;;;15.87;14.93;;;19.60;99.90;;;;;;4750057;30;20538;-52
2023/09/18 02:36:02;;;;;;;16.73;15.60;;;19.50;99.90;;;;;;4750683;30;20243;-51
2023/09/18 02:38:28;;;;;;;16.60;15.60;;;19.60;99.90;;;;;;4750298;30;20482;-53
2023/09/18 02:40:54;;;;;;;15.90;14.97;;;19.60;99.90;;;;;;4750220;30;20211;-51
2023/09/18 02:43:21;;;;;;;16.60;15.60;;;19.60;99.90;;;;;;4749465;30;20454;-52
2023/09/18 02:45:46;;;;;;;16.63;15.53;;;19.60;99.90;;;;;;4750205;30;20669;-54
2023/09/18 02:48:12;;;;;;;15.40;14.50;;;19.60;99.90;;;;;;4749763;30;20486;-55
2023/09/18 02:50:38;;;;;;;16.63;15.60;;;19.60;99.90;;;;;;4750348;30;20196;-51
2023/09/18 02:53:06;;;;;;;16.47;15.30;;;19.60;99.90;;;;;;4762832;30;20212;-51
2023/09/18 02:55:32;;;;;;;16.63;15.53;;;19.60;99.90;;;;;;4751896;30;20249;-54
2023/09/18 02:57:58;;;;;;;16.50;15.50;;;19.60;99.90;;;;;;4750497;30;21152;-50
2023/09/18 03:00:24;;;;;;;16.17;15.17;;;19.60;99.90;;;;;;4750522;30;20188;-52
2023/09/18 03:02:50;;;;;;;15.43;14.53;;;19.60;99.90;;;;;;4750438;30;20430;-49
2023/09/18 03:05:15;;;;;;;16.37;15.37;;;19.70;99.90;;;;;;4749775;30;20311;-52
2023/09/18 03:07:41;;;;;;;15.17;14.20;;;19.60;99.90;;;;;;4744625;30;20219;-54
2023/09/18 03:10:07;;;;;;;16.53;15.53;;;19.60;99.90;;;;;;4749092;30;20673;-49
2023/09/18 03:12:33;;;;;;;16.13;15.13;;;19.70;99.90;;;;;;4750384;30;20224;-52
2023/09/18 03:14:59;;;;;;;16.97;15.80;;;19.70;99.90;;;;;;4750117;30;20442;-49
2023/09/18 03:17:25;;;;;;;16.77;15.67;;;19.60;99.90;;;;;;4748290;30;20522;-51
2023/09/18 03:19:50;;;;;;;16.47;15.47;;;19.60;99.90;;;;;;4748908;30;20450;-52
2023/09/18 03:22:16;;;;;;;16.50;15.50;;;19.70;99.90;;;;;;4750580;30;20189;-50
2023/09/18 03:24:41;;;;;;;15.90;15.00;;;19.60;99.90;;;;;;4747647;30;20200;-51
2023/09/18 03:27:07;;;;;;;17.73;16.53;;;19.60;99.90;;;;;;4746276;30;20338;-51
2023/09/18 03:29:33;;;;;;;17.27;16.17;;;19.60;99.90;;;;;;4745473;30;20629;-53
2023/09/18 03:31:59;;;;;;;17.10;16.00;;;19.60;99.90;;;;;;4748230;30;20207;-53
2023/09/18 03:34:26;;;;;;;16.13;15.23;;;19.60;99.90;;;;;;4749753;30;20196;-50
2023/09/18 03:36:53;;;;;;;18.70;17.50;;;19.60;99.90;;;;;;4749743;30;20478;-51
2023/09/18 03:39:18;;;;;;;17.03;16.03;;;19.50;99.90;;;;;;4749345;30;20477;-50
2023/09/18 03:41:44;;;;;;;16.43;15.43;;;19.50;99.90;;;;;;4745501;30;20508;-50
2023/09/18 03:44:10;;;;;;;17.20;16.10;;;19.60;99.90;;;;;;4749135;30;20200;-52
2023/09/18 03:46:36;;;;;;;16.17;14.97;;;19.60;99.90;;;;;;4748923;30;20207;-56
2023/09/18 03:49:02;;;;;;;17.10;16.00;;;19.60;99.90;;;;;;4749022;30;20826;-51
2023/09/18 03:51:29;;;;;;;16.30;15.40;;;19.60;99.90;;;;;;4749681;30;20564;-54
2023/09/18 03:53:55;;;;;;;17.07;15.87;;;19.60;99.90;;;;;;4748664;30;20477;-52
2023/09/18 03:56:21;;;;;;;16.97;15.77;;;19.60;99.90;;;;;;4752115;30;20443;-53
2023/09/18 03:58:49;;;;;;;16.80;15.57;;;19.50;99.90;;;;;;4742212;30;20510;-54
2023/09/18 04:01:15;;;;;;;16.30;15.30;;;19.50;99.90;;;;;;4748826;30;20435;-55
2023/09/18 04:03:41;;;;;;;15.60;14.70;;;19.40;99.90;;;;;;4748053;30;20450;-53
2023/09/18 04:06:07;;;;;;;16.20;15.17;;;19.40;99.90;;;;;;4746331;30;20914;-52
2023/09/18 04:08:32;;;;;;;16.53;15.53;;;19.40;99.90;;;;;;4748897;30;20624;-50
2023/09/18 04:10:58;;;;;;;16.70;15.60;;;19.40;99.90;;;;;;4748991;30;20212;-47
2023/09/18 04:13:24;;;;;;;16.90;15.87;;;19.40;99.90;;;;;;4746417;30;20206;-54
2023/09/18 04:15:51;;;;;;;16.83;15.73;;;19.30;99.90;;;;;;4747486;30;20245;-53
2023/09/18 04:18:17;;;;;;;16.07;15.07;;;19.30;99.90;;;;;;4747345;30;20531;-50
2023/09/18 04:20:42;;;;;;;17.17;15.97;;;19.20;99.90;;;;;;4750660;30;20459;-51
2023/09/18 04:23:26;;;;;;;16.30;15.30;;;19.20;99.90;;;;;;4748455;30;20558;-54
2023/09/18 04:25:53;;;;;;;16.47;15.37;;;19.20;99.90;;;;;;4747856;30;20198;-52
2023/09/18 04:28:21;;;;;;;16.60;15.53;;;19.20;99.90;;;;;;4739440;30;20489;-53
2023/09/18 04:30:47;;;;;;;16.43;15.33;;;19.10;99.90;;;;;;4740981;30;20445;-50
2023/09/18 04:33:16;;;;;;;16.27;15.13;;;19.00;99.90;;;;;;4740231;30;20426;-49
2023/09/18 04:35:43;;;;;;;18.03;16.63;;;19.00;99.90;;;;;;4738904;30;20533;-53
2023/09/18 04:38:10;;;;;;;17.23;16.10;;;19.00;99.90;;;;;;4736457;30;20482;-54
2023/09/18 04:40:36;;;;;;;16.60;15.50;;;18.90;99.90;;;;;;4736008;30;20495;-51
2023/09/18 04:43:04;;;;;;;17.20;16.00;;;18.90;99.90;;;;;;4737979;30;20438;-54
2023/09/18 04:45:31;;;;;;;15.60;14.50;;;18.90;99.90;;;;;;4735535;30;20457;-55
2023/09/18 04:47:57;;;;;;;16.37;15.07;;;18.90;99.90;;;;;;4739903;30;20445;-50
2023/09/18 04:50:23;;;;;;;17.37;16.17;;;18.90;99.90;;;;;;4739564;30;20435;-50
2023/09/18 04:52:50;;;;;;;17.47;16.37;;;18.90;99.90;;;;;;4739273;30;20462;-49
2023/09/18 04:55:16;;;;;;;16.33;15.23;;;18.90;99.90;;;;;;4738426;30;20204;-47
2023/09/18 04:57:42;;;;;;;17.40;16.30;;;19.00;99.90;;;;;;4740210;30;20483;-51
2023/09/18 05:00:08;;;;;;;17.67;16.43;;;18.90;99.90;;;;;;4739026;30;20185;-47
2023/09/18 05:02:35;;;;;;;16.47;15.47;;;18.90;99.90;;;;;;4737972;30;20189;-50
2023/09/18 05:05:02;;;;;;;17.27;16.07;;;18.90;99.90;;;;;;4752713;30;20474;-50
2023/09/18 05:07:27;;;;;;;18.00;16.80;;;18.90;99.90;;;;;;4738378;30;21512;-51
2023/09/18 05:09:53;;;;;;;17.73;16.53;;;18.90;99.90;;;;;;4739224;30;20462;-49
2023/09/18 05:12:18;;;;;;;17.23;16.03;;;18.90;99.90;;;;;;4738994;30;20250;-47
2023/09/18 05:14:44;;;;;;;16.20;15.10;;;18.90;99.90;;;;;;4739114;30;20217;-51
2023/09/18 05:17:16;;;;;;;17.60;16.40;;;18.90;99.90;;;;;;4739390;30;20300;-47
2023/09/18 05:19:45;;;;;;;17.40;16.23;;;18.90;99.90;;;;;;4740329;30;20288;-49
2023/09/18 05:22:12;;;;;;;17.60;16.50;;;18.80;99.90;;;;;;4740097;30;20915;-50
2023/09/18 05:24:38;;;;;;;17.30;16.10;;;18.90;99.90;;;;;;4739653;30;20426;-53
2023/09/18 05:27:06;;;;;;;17.83;16.67;;;18.90;99.90;;;;;;4739755;30;20533;-48
2023/09/18 05:29:32;;;;;;;18.20;16.90;;;19.00;99.90;;;;;;4739658;30;20446;-50
2023/09/18 05:31:57;;;;;;;16.70;15.50;;;19.00;99.90;;;;;;4739237;30;20443;-50
2023/09/18 05:34:23;;;;;;;17.53;16.37;;;19.10;99.90;;;;;;4739397;30;20459;-47
2023/09/18 05:36:49;;;;;;;17.53;16.23;;;19.10;99.90;;;;;;4739508;30;20576;-49
2023/09/18 05:39:16;;;;;;;17.43;16.23;;;19.10;99.90;;;;;;4739393;30;20220;-48
2023/09/18 05:41:42;;;;;;;16.17;15.17;;;19.20;99.90;;;;;;4739697;30;20447;-48
2023/09/18 05:44:08;;;;;;;17.97;16.77;;;19.20;99.90;;;;;;4740004;30;20500;-53
2023/09/18 05:46:36;;;;;;;17.30;16.20;;;19.20;99.90;;;;;;4737963;30;20200;-48
2023/09/18 05:49:03;;;;;;;17.20;16.00;;;19.20;99.90;;;;;;4739858;30;20236;-45
2023/09/18 05:51:30;;;;;;;16.40;15.40;;;19.30;99.90;;;;;;4738812;30;20536;-48
2023/09/18 05:53:55;;;;;;;16.20;15.00;;;19.30;99.90;;;;;;4738222;30;20485;-49
2023/09/18 05:56:21;;;;;;;17.93;16.73;;;19.40;99.90;;;;;;4738527;30;20454;-49
2023/09/18 05:58:47;;;;;;;16.67;15.57;;;19.40;99.90;;;;;;4738473;30;20621;-48
2023/09/18 06:01:12;;;;;;;16.63;15.53;;;19.40;99.90;;;;;;4739714;30;20228;-48
2023/09/18 06:03:38;;;;;;;17.20;16.10;;;19.50;99.90;;;;;;4742096;30;20196;-50
2023/09/18 06:06:04;;;;;;;17.17;16.07;;;19.50;99.90;;;;;;4742674;30;20189;-51
2023/09/18 06:08:31;;;;;;;16.70;15.60;;;19.50;99.90;;;;;;4742823;30;20989;-48
2023/09/18 06:10:57;;;;;;;17.47;16.27;;;19.50;99.90;;;;;;4740654;30;20458;-52
2023/09/18 06:13:27;;;;;;;17.90;16.70;;;19.50;99.90;;;;;;4741866;30;20446;-48
2023/09/18 06:15:55;;;;;;;17.90;16.70;;;19.50;99.90;;;;;;4740719;30;20490;-47
2023/09/18 06:18:21;;;;;;;17.70;16.63;;;19.60;99.90;;;;;;4741521;30;20474;-50
2023/09/18 06:20:47;;;;;;;17.83;16.63;;;19.60;99.90;;;;;;4742824;30;20434;-47
2023/09/18 06:23:13;;;;;;;17.23;15.93;;;19.60;99.90;;;;;;4741759;30;20457;-47
2023/09/18 06:25:41;;;;;;;16.90;15.70;;;19.70;99.90;;;;;;4741580;30;20459;-48
2023/09/18 06:28:07;;;;;;;16.67;15.57;;;19.70;99.90;;;;;;4741980;30;20231;-45
2023/09/18 06:30:34;;;;;;;16.60;15.50;;;19.80;99.90;;;;;;4742963;30;21272;-46
2023/09/18 06:33:01;;;;;;;16.27;15.27;;;19.80;99.90;;;;;;4741898;30;20607;-50
2023/09/18 06:35:26;;;;;;;17.47;16.30;;;19.90;99.90;;;;;;4742580;30;20488;-47
2023/09/18 06:37:54;;;;;;;17.60;16.50;;;19.90;99.90;;;;;;4741569;30;20888;-49
2023/09/18 06:40:20;;;;;;;18.20;17.00;;;20.00;99.90;;;;;;4742166;30;20177;-47
2023/09/18 06:42:46;;;;;;;17.27;16.10;;;20.00;99.90;;;;;;4741858;30;20987;-46
2023/09/18 06:45:12;;;;;;;16.60;15.37;;;20.10;99.90;;;;;;4741962;30;20192;-50
2023/09/18 06:47:40;;;;;;;17.03;15.87;;;20.10;99.90;;;;;;4741776;30;20216;-49
2023/09/18 06:50:06;;;;;;;17.97;16.77;;;20.20;99.90;;;;;;4742313;30;21020;-47
2023/09/18 06:52:31;;;;;;;16.40;15.40;;;20.20;99.90;;;;;;4742192;30;20520;-45
2023/09/18 06:54:57;;;;;;;18.47;17.20;;;20.20;99.90;;;;;;4741540;30;21372;-47
2023/09/18 06:57:24;;;;;;;17.00;15.90;;;20.20;99.90;;;;;;4741214;30;20200;-49
2023/09/18 06:59:49;;;;;;;16.73;15.63;;;20.20;99.90;;;;;;4741514;30;20435;-47
2023/09/18 07:02:15;;;;;;;17.10;15.70;;;20.20;99.90;;;;;;4741100;30;20438;-50
2023/09/18 07:04:45;;;;;;;16.90;15.80;;;20.30;99.90;;;;;;4741131;30;20200;-53
2023/09/18 07:07:12;;;;;;;17.60;16.40;;;20.30;99.90;;;;;;4741510;30;20434;-47
2023/09/18 07:09:38;;;;;;;18.03;16.83;;;20.40;99.90;;;;;;4741371;30;20810;-45
2023/09/18 07:12:04;;;;;;;16.90;15.90;;;20.50;99.90;;;;;;4739420;30;20446;-48
2023/09/18 07:14:30;;;;;;;16.60;15.50;;;20.60;99.90;;;;;;4740541;30;20209;-49
2023/09/18 07:16:56;;;;;;;17.80;16.50;;;20.70;99.90;;;;;;4741005;30;20533;-48
2023/09/18 07:19:22;;;;;;;17.17;16.00;;;20.80;99.90;;;;;;4741204;30;20569;-47
2023/09/18 07:21:47;;;;;;;16.97;15.77;;;20.90;99.90;;;;;;4741233;30;20512;-46
2023/09/18 07:24:16;;;;;;;17.30;16.20;;;21.00;99.90;;;;;;4741341;30;20573;-49
2023/09/18 07:26:44;;;;;;;16.50;15.40;;;21.10;99.90;;;;;;4740954;30;20696;-45
2023/09/18 07:29:10;;;;;;;16.93;15.90;;;21.20;99.90;;;;;;4740766;30;20453;-46
2023/09/18 07:31:35;;;;;;;15.33;14.43;;;21.30;99.90;;;;;;4738628;30;20458;-46
2023/09/18 07:34:01;;;;;;;17.30;16.30;;;21.40;99.90;;;;;;4739751;30;20196;-51
2023/09/18 07:36:27;;;;;;;17.80;16.67;;;21.50;99.90;;;;;;4739335;30;20208;-48
2023/09/18 07:38:52;;;;;;;15.67;14.70;;;21.60;99.90;;;;;;4739964;30;20228;-46
2023/09/18 07:41:19;;;;;;;15.67;14.57;;;21.80;99.90;;;;;;4740903;30;20878;-49
2023/09/18 07:43:45;;;;;;;17.17;16.07;;;21.90;99.90;;;;;;4741347;30;20197;-50
2023/09/18 07:46:10;;;;;;;18.10;16.70;;;22.00;99.90;;;;;;4739853;30;20968;-51
2023/09/18 07:48:37;;;;;;;16.70;15.60;;;22.20;99.90;;;;;;4739822;30;20300;-49
2023/09/18 07:51:03;;;;;;;17.20;16.07;;;22.40;99.90;;;;;;4740138;30;20236;-51
2023/09/18 07:53:28;;;;;;;17.40;16.30;;;22.50;99.90;;;;;;4738988;30;20530;-53
2023/09/18 07:55:58;;;;;;;17.53;16.43;;;22.70;99.90;;;;;;4740596;30;20228;-50
2023/09/18 07:58:27;;;;;;;17.80;16.70;;;22.80;99.90;;;;;;4740524;30;20621;-49
2023/09/18 08:00:57;;;;;;;16.23;15.23;;;23.00;99.90;;;;;;4740941;30;20532;-49
2023/09/18 08:03:24;;;;;;;16.60;15.50;;;23.20;99.90;;;;;;4740617;30;20431;-45
2023/09/18 08:05:52;;;;;;;16.23;15.23;;;23.30;99.90;;;;;;4740691;30;20434;-48
2023/09/18 08:08:20;;;;;;;16.40;15.50;;;23.40;99.90;;;;;;4741193;30;20422;-46
2023/09/18 08:10:46;;;;;;;15.77;14.87;;;23.50;99.90;;;;;;4741037;30;20473;-49
2023/09/18 08:13:12;;;;;;;16.80;15.80;;;23.80;99.90;;;;;;4740648;30;20434;-49
2023/09/18 08:15:38;;;;;;;17.57;16.40;;;24.00;99.00;;;;;;4740344;30;20478;-45
2023/09/18 08:18:04;;;;;;;16.97;15.97;;;24.30;98.30;;;;;;4740753;30;20877;-49
2023/09/18 08:20:30;;;;;;;15.80;14.90;;;24.50;97.40;;;;;;4740912;30;20201;-51
2023/09/18 08:22:56;;;;;;;16.30;15.40;;;24.70;96.60;;;;;;4738925;30;20203;-48
2023/09/18 08:25:22;;;;;;;15.17;14.37;;;24.90;95.60;;;;;;4739309;30;20181;-49
2023/09/18 08:27:48;;;;;;;16.30;15.40;;;25.20;95.00;;;;;;4732879;30;20450;-49
2023/09/18 08:30:14;;;;;;;15.77;14.87;;;25.50;93.20;;;;;;4733732;30;20212;-48
2023/09/18 08:32:41;;;;;;;15.77;14.87;;;25.80;92.70;;;;;;4735341;30;20836;-48
2023/09/18 08:35:08;;;;;;;15.60;14.70;;;26.20;92.40;;;;;;4739701;30;20438;-50
2023/09/18 08:37:34;;;;;;;14.90;14.10;;;26.50;90.50;;;;;;4739802;30;20477;-47
2023/09/18 08:40:00;;;;;;;15.00;14.13;;;26.80;88.40;;;;;;4739619;30;20438;-49
2023/09/18 08:42:29;;;;;;;15.30;14.50;;;27.20;85.30;;;;;;4740450;30;20518;-48
2023/09/18 08:44:59;;;;;;;16.17;15.27;;;27.40;82.00;;;;;;4739804;30;20441;-47
2023/09/18 08:47:26;;;;;;;14.40;13.60;;;27.90;81.10;;;;;;4731012;30;20477;-52
2023/09/18 08:49:54;;;;;;;14.93;14.13;;;28.20;77.50;;;;;;4739372;30;20529;-54
2023/09/18 08:52:20;;;;;;;14.23;13.53;;;28.20;73.70;;;;;;4737473;30;20524;-51
2023/09/18 08:54:46;;;;;;;15.00;14.20;;;28.20;73.00;;;;;;4738963;30;20543;-48
2023/09/18 08:57:12;;;;;;;14.97;14.17;;;28.20;72.40;;;;;;4739904;30;20573;-53
2023/09/18 08:59:40;;;;;;;14.33;13.33;;;28.30;70.50;;;;;;4753362;30;20466;-48
2023/09/18 09:02:07;;;;;;;14.53;13.73;;;28.60;69.60;;;;;;4739475;30;20557;-53
2023/09/18 09:04:32;;;;;;;14.93;14.10;;;28.80;69.00;;;;;;4739747;30;20562;-49
2023/09/18 09:06:59;;;;;;;15.17;14.37;;;28.80;66.80;;;;;;4739849;30;20439;-53
2023/09/18 09:09:29;;;;;;;14.50;13.60;;;29.00;65.90;;;;;;4739272;30;20220;-55
2023/09/18 09:11:55;;;;;;;14.83;14.03;;;29.30;64.00;;;;;;4739254;30;20448;-48
2023/09/18 09:14:29;;;;;;;14.83;14.03;;;29.80;62.80;;;;;;4739634;30;20438;-52
2023/09/18 09:16:59;;;;;;;14.67;13.97;;;30.30;59.30;;;;;;4738208;30;20250;-48
2023/09/18 09:19:35;;;;;;;14.43;13.73;;;30.80;57.20;;;;;;4738176;30;20490;-52
2023/09/18 09:22:01;;;;;;;16.13;14.83;;;31.10;54.40;;;;;;4738711;30;20457;-50
2023/09/18 09:24:43;;;;;;;14.13;13.37;;;31.40;54.10;;;;;;4738827;30;20443;-51
2023/09/18 09:27:10;;;;;;;14.87;14.07;;;31.20;51.40;;;;;;4739294;30;21102;-53
2023/09/18 09:29:37;;;;;;;14.83;14.03;;;31.00;51.30;;;;;;4739560;30;21219;-55
2023/09/18 09:32:16;;;;;;;14.20;13.40;;;30.70;50.70;;;;;;4738538;30;20507;-52
2023/09/18 09:34:43;;;;;;;14.67;13.87;;;30.50;49.50;;;;;;4739299;30;20445;-51
2023/09/18 09:37:10;;;;;;;14.47;13.77;;;30.70;49.30;;;;;;4741494;30;20527;-54
2023/09/18 09:39:48;;;;;;;14.60;13.80;;;30.30;50.00;;;;;;4742257;30;20438;-54
2023/09/18 09:42:18;;;;;;;13.13;12.53;;;30.50;49.00;;;;;;4741946;30;21001;-46
2023/09/18 09:44:44;;;;;;;14.30;13.60;;;30.40;48.70;;;;;;4742263;30;20442;-54
2023/09/18 09:47:11;;;;;;;14.23;13.53;;;30.70;48.80;;;;;;4754171;30;20566;-53
2023/09/18 09:49:47;;;;;;;14.83;14.13;;;30.70;48.60;;;;;;4740587;30;20460;-53
2023/09/18 09:52:22;;;;;;;13.63;12.93;;;31.30;47.80;;;;;;4741609;30;20812;-53
2023/09/18 09:54:48;;;;;;;13.37;12.67;;;31.60;46.20;;;;;;4743287;30;20434;-52
2023/09/18 09:57:13;;;;;;;14.40;13.70;;;31.20;45.20;;;;;;4742965;30;21110;-54
2023/09/18 09:59:44;;;;;;;14.17;13.40;;;31.00;45.40;;;;;;4742331;30;20207;-53
2023/09/18 10:02:12;;;;;;;14.57;13.87;;;30.00;46.90;;;;;;4741646;30;20311;-54
2023/09/18 10:04:38;;;;;;;14.50;13.70;;;29.90;47.80;;;;;;4742302;30;20438;-54
2023/09/18 10:07:08;;;;;;;14.40;13.70;;;29.80;48.50;;;;;;4740954;30;20443;-54
2023/09/18 10:09:42;;;;;;;14.20;13.50;;;30.10;48.40;;;;;;4742589;30;20477;-51
2023/09/18 10:12:11;;;;;;;15.47;14.67;;;30.20;47.40;;;;;;4742154;30;20716;-49
2023/09/18 10:14:39;;;;;;;15.30;14.50;;;30.20;47.70;;;;;;4739333;30;20485;-50
2023/09/18 10:17:17;;;;;;;15.40;14.60;;;29.70;48.50;;;;;;4741546;30;20544;-51
2023/09/18 10:20:10;;;;;;;13.90;13.20;;;29.60;48.00;;;;;;4742284;30;20438;-50
2023/09/18 10:22:42;;;;;;;14.90;14.10;;;29.80;48.50;;;;;;4742514;30;20443;-51
2023/09/18 10:25:18;;;;;;;14.87;13.97;;;30.50;48.70;;;;;;4742113;30;20492;-53
2023/09/18 10:27:53;;;;;;;13.70;13.00;;;31.20;47.30;;;;;;4742173;30;20442;-51
2023/09/18 10:30:19;;;;;;;14.30;13.50;;;31.90;45.10;;;;;;4742304;30;20434;-52
2023/09/18 10:32:46;;;;;;;14.93;14.13;;;32.60;43.90;;;;;;4742429;30;20452;-53
2023/09/18 10:35:12;;;;;;;14.50;13.70;;;33.20;42.50;;;;;;4755313;30;20499;-52
2023/09/18 10:37:38;;;;;;;13.90;13.20;;;33.30;39.40;;;;;;4742316;30;20495;-51
2023/09/18 10:40:08;;;;;;;14.90;14.10;;;33.50;39.80;;;;;;4741031;30;20901;-53
2023/09/18 10:42:37;;;;;;;14.80;14.00;;;34.10;38.50;;;;;;4742170;30;20524;-53
2023/09/18 10:45:06;;;;;;;14.80;14.10;;;34.00;37.50;;;;;;4742430;30;21312;-53
2023/09/18 10:47:34;;;;;;;14.13;13.43;;;34.00;37.70;;;;;;4750427;30;20459;-52
2023/09/18 10:50:00;;;;;;;14.50;13.80;;;34.50;38.40;;;;;;4741620;30;20454;-51
2023/09/18 10:52:26;;;;;;;13.90;13.20;;;34.90;37.50;;;;;;4740630;30;20467;-53
2023/09/18 10:54:52;;;;;;;14.90;14.10;;;34.80;36.60;;;;;;4740831;30;20992;-55
2023/09/18 10:57:18;;;;;;;14.50;13.60;;;34.90;35.20;;;;;;4740890;30;20234;-54
2023/09/18 10:59:47;;;;;;;15.03;14.23;;;34.60;35.40;;;;;;4741621;30;21361;-51
2023/09/18 11:02:17;;;;;;;15.43;14.33;;;34.50;35.10;;;;;;4740393;30;20278;-54
2023/09/18 11:04:45;;;;;;;14.70;14.00;;;33.80;35.90;;;;;;4738922;30;20464;-54
2023/09/18 11:07:24;;;;;;;15.40;14.60;;;32.20;38.40;;;;;;4740795;30;20958;-53
2023/09/18 11:09:50;;;;;;;15.63;14.80;;;31.70;40.50;;;;;;4739463;30;20454;-53
2023/09/18 11:12:18;;;;;;;15.00;14.10;;;31.30;41.40;;;;;;4741248;30;20521;-50
2023/09/18 11:14:56;;;;;;;15.20;14.40;;;30.70;42.80;;;;;;4740213;30;20201;-54
2023/09/18 11:17:39;;;;;;;14.90;14.10;;;30.40;44.00;;;;;;4736952;30;20490;-51
2023/09/18 11:20:17;;;;;;;15.50;14.60;;;30.00;45.30;;;;;;4741383;30;20437;-53
2023/09/18 11:22:47;;;;;;;13.97;13.27;;;29.50;45.60;;;;;;4741738;30;20472;-54
2023/09/18 11:25:37;;;;;;;14.20;13.40;;;28.80;46.60;;;;;;4741766;30;20439;-49
2023/09/18 11:28:03;;;;;;;15.13;13.93;;;28.50;48.10;;;;;;4741842;30;20469;-53
2023/09/18 11:30:29;;;;;;;14.23;13.47;;;28.40;48.90;;;;;;4741451;30;20533;-53
2023/09/18 11:32:56;;;;;;;15.10;14.30;;;28.50;49.70;;;;;;4740059;30;20791;-53
2023/09/18 11:35:22;;;;;;;16.10;15.20;;;28.50;50.00;;;;;;4740346;30;20533;-50
2023/09/18 11:38:07;;;;;;;16.37;15.37;;;28.60;50.40;;;;;;4740876;30;20536;-49
2023/09/18 11:40:38;;;;;;;15.53;14.63;;;28.60;50.40;;;;;;4740328;30;20561;-49
2023/09/18 11:43:25;;;;;;;14.07;13.37;;;28.70;50.70;;;;;;4741105;30;20525;-54
2023/09/18 11:45:52;;;;;;;15.37;14.47;;;28.60;50.90;;;;;;4741281;30;20593;-54
2023/09/18 11:48:18;;;;;;;14.87;14.07;;;28.50;51.10;;;;;;4754698;30;20519;-53
2023/09/18 11:50:44;;;;;;;14.23;13.43;;;28.60;51.30;;;;;;4741083;30;20486;-53
2023/09/18 11:53:12;;;;;;;15.17;14.27;;;28.90;51.10;;;;;;4741216;30;20518;-54
2023/09/18 11:55:39;;;;;;;15.07;14.27;;;29.10;50.00;;;;;;4741340;30;20660;-48
2023/09/18 11:58:05;;;;;;;15.13;14.33;;;29.40;49.10;;;;;;4740733;30;20470;-53
2023/09/18 12:00:32;;;;;;;14.80;14.10;;;30.20;47.80;;;;;;4740860;30;21436;-54
2023/09/18 12:03:00;;;;;;;15.43;14.57;;;31.20;47.00;;;;;;4741277;30;20461;-50
2023/09/18 12:05:26;;;;;;;15.30;14.40;;;32.50;44.50;;;;;;4740807;30;20695;-53
2023/09/18 12:07:53;;;;;;;15.13;14.33;;;33.20;40.10;;;;;;4741144;30;20423;-53
2023/09/18 12:10:22;;;;;;;15.10;14.30;;;33.60;39.50;;;;;;4739893;30;20574;-54
2023/09/18 12:12:48;;;;;;;16.33;15.33;;;34.70;39.60;;;;;;4740868;30;20891;-53
2023/09/18 12:15:19;;;;;;;15.00;14.10;;;35.40;36.90;;;;;;4740287;30;20431;-52
2023/09/18 12:17:45;;;;;;;15.10;14.30;;;36.30;35.40;;;;;;4740157;30;20636;-50
2023/09/18 12:20:18;;;;;;;16.00;15.00;;;36.80;33.50;;;;;;4740170;30;21325;-55
2023/09/18 12:22:50;;;;;;;15.20;14.40;;;36.70;31.80;;;;;;4740208;30;20435;-48
2023/09/18 12:25:19;;;;;;;15.40;14.50;;;36.60;32.20;;;;;;4740616;30;20431;-54
2023/09/18 12:27:44;;;;;;;16.20;15.40;;;36.90;32.20;;;;;;4740219;30;20426;-53
2023/09/18 12:30:12;;;;;;;15.90;15.10;;;37.20;31.00;;;;;;4739784;30;20458;-52